Time;durP1;ratioP1;P1;durP2;ratioP2;P2;SDS_P1;SDS_P2;PMS_P1;PMS_P2;Temp;Humidity;BMP_temperature;BMP_pressure;BME280_temperature;BME280_humidity;BME280_pressure;Samples;Min_cycle;Max_cycle;Signal;HPM_P1;HPM_P2
2021/05/01 00:01:54;;;;;;;9.20;6.23;;;8.60;99.90;;;;;;5028725;28;20507;-49
2021/05/01 00:04:20;;;;;;;9.23;6.80;;;8.70;99.90;;;;;;5029046;28;20204;-51
2021/05/01 00:06:46;;;;;;;8.17;6.20;;;8.60;99.90;;;;;;5029524;28;20230;-50
2021/05/01 00:09:13;;;;;;;8.93;6.20;;;8.60;99.90;;;;;;5030846;28;20862;-50
2021/05/01 00:11:39;;;;;;;7.67;6.40;;;8.40;99.90;;;;;;5027455;28;20333;-51
2021/05/01 00:14:06;;;;;;;8.87;5.83;;;8.20;99.90;;;;;;5030025;28;20683;-50
2021/05/01 00:16:32;;;;;;;9.77;6.60;;;8.30;99.90;;;;;;5027504;28;20200;-51
2021/05/01 00:18:59;;;;;;;8.77;6.77;;;8.20;99.90;;;;;;5030588;28;20201;-50
2021/05/01 00:21:26;;;;;;;9.20;5.90;;;8.20;99.90;;;;;;5030015;28;20328;-50
2021/05/01 00:23:53;;;;;;;7.43;5.97;;;8.30;99.90;;;;;;5030363;28;20743;-50
2021/05/01 00:26:19;;;;;;;7.43;5.63;;;8.10;99.90;;;;;;5031861;28;20260;-50
2021/05/01 00:28:46;;;;;;;9.27;6.20;;;8.20;99.90;;;;;;5031648;28;20316;-50
2021/05/01 00:31:13;;;;;;;9.30;6.43;;;8.20;99.90;;;;;;5028453;28;20198;-50
2021/05/01 00:33:40;;;;;;;8.20;5.93;;;8.20;99.90;;;;;;5028098;28;20217;-50
2021/05/01 00:36:06;;;;;;;9.63;6.67;;;8.20;99.90;;;;;;5030665;28;20201;-50
2021/05/01 00:38:33;;;;;;;9.10;6.70;;;8.10;99.90;;;;;;5030756;28;20197;-50
2021/05/01 00:41:00;;;;;;;9.67;6.63;;;8.00;99.90;;;;;;5030990;28;20279;-51
2021/05/01 00:43:27;;;;;;;9.90;6.93;;;7.90;99.90;;;;;;5031786;28;20252;-50
2021/05/01 00:45:54;;;;;;;11.47;6.17;;;7.80;99.90;;;;;;5030155;28;20231;-50
2021/05/01 00:48:21;;;;;;;11.83;6.83;;;7.90;99.90;;;;;;5031574;28;20272;-49
2021/05/01 00:50:48;;;;;;;9.33;7.33;;;7.90;99.90;;;;;;5030414;28;20532;-49
2021/05/01 00:53:14;;;;;;;8.63;6.43;;;7.80;99.90;;;;;;5029582;28;20255;-51
2021/05/01 00:55:43;;;;;;;9.00;6.37;;;7.80;99.90;;;;;;5031146;28;20256;-49
2021/05/01 00:58:11;;;;;;;9.50;6.63;;;7.80;99.90;;;;;;5033048;28;20228;-50
2021/05/01 01:00:51;;;;;;;11.83;7.07;;;7.80;99.90;;;;;;5029499;28;20580;-50
2021/05/01 01:03:18;;;;;;;9.80;6.87;;;7.80;99.90;;;;;;5028482;28;20214;-50
2021/05/01 01:05:44;;;;;;;11.87;7.73;;;7.80;99.90;;;;;;5032466;28;20293;-49
2021/05/01 01:08:10;;;;;;;11.37;7.47;;;7.70;99.90;;;;;;5029730;28;20200;-50
2021/05/01 01:10:37;;;;;;;12.13;8.23;;;7.70;99.90;;;;;;5029383;28;20212;-49
2021/05/01 01:13:03;;;;;;;17.70;8.23;;;7.70;99.90;;;;;;5030048;28;20296;-50
2021/05/01 01:15:31;;;;;;;10.90;8.10;;;7.70;99.90;;;;;;5029061;28;20293;-50
2021/05/01 01:17:58;;;;;;;10.93;8.07;;;7.80;99.90;;;;;;5029201;28;20200;-50
2021/05/01 01:20:26;;;;;;;10.73;8.43;;;7.70;99.90;;;;;;5027885;28;20282;-49
2021/05/01 01:22:53;;;;;;;12.73;8.67;;;7.60;99.90;;;;;;5027887;28;20229;-50
2021/05/01 01:25:20;;;;;;;16.60;9.03;;;7.60;99.90;;;;;;5028953;28;20335;-50
2021/05/01 01:27:48;;;;;;;14.63;10.30;;;7.70;99.90;;;;;;5031820;28;20787;-50
2021/05/01 01:30:17;;;;;;;12.70;9.20;;;7.60;99.90;;;;;;5028641;28;20295;-49
2021/05/01 01:32:45;;;;;;;17.03;10.37;;;7.50;99.90;;;;;;5029747;28;20681;-50
2021/05/01 01:35:14;;;;;;;12.47;9.13;;;7.40;99.90;;;;;;5029757;28;20203;-50
2021/05/01 01:37:43;;;;;;;14.03;11.13;;;7.30;99.90;;;;;;5025940;28;20210;-51
2021/05/01 01:40:12;;;;;;;13.47;9.73;;;7.30;99.90;;;;;;5028753;28;20668;-49
2021/05/01 01:42:42;;;;;;;15.73;10.17;;;7.40;99.90;;;;;;5029019;28;20228;-50
2021/05/01 01:45:11;;;;;;;15.40;11.00;;;7.40;99.90;;;;;;5027906;28;20246;-50
2021/05/01 01:47:37;;;;;;;18.30;11.90;;;7.40;99.90;;;;;;5033961;28;20277;-50
2021/05/01 01:50:09;;;;;;;14.83;11.70;;;7.20;99.90;;;;;;5029104;28;20226;-49
2021/05/01 01:52:37;;;;;;;16.80;11.67;;;7.30;99.90;;;;;;5027834;28;20302;-49
2021/05/01 01:55:05;;;;;;;18.17;11.93;;;7.10;99.90;;;;;;5026060;28;22108;-50
2021/05/01 01:57:32;;;;;;;19.60;11.73;;;7.10;99.90;;;;;;5029933;28;20205;-50
2021/05/01 01:59:59;;;;;;;20.67;12.77;;;7.10;99.90;;;;;;5028038;28;20304;-49
2021/05/01 02:02:29;;;;;;;16.77;13.03;;;7.00;99.90;;;;;;5026831;28;20224;-50
2021/05/01 02:04:56;;;;;;;21.87;13.77;;;7.00;99.90;;;;;;5029221;28;20245;-50
2021/05/01 02:07:22;;;;;;;23.20;14.53;;;7.10;99.90;;;;;;5030408;28;20239;-49
2021/05/01 02:09:48;;;;;;;20.80;14.40;;;7.00;99.90;;;;;;5028052;28;20769;-49
2021/05/01 02:12:15;;;;;;;20.97;14.03;;;7.00;99.90;;;;;;5027637;28;20292;-50
2021/05/01 02:14:41;;;;;;;20.83;12.93;;;7.00;99.90;;;;;;5030204;28;20612;-50
2021/05/01 02:17:07;;;;;;;23.57;15.07;;;7.10;99.90;;;;;;5028223;28;20241;-49
2021/05/01 02:19:34;;;;;;;23.23;14.50;;;7.10;99.90;;;;;;5029324;28;20219;-49
2021/05/01 02:22:00;;;;;;;22.50;14.30;;;7.00;99.90;;;;;;5032308;28;21048;-51
2021/05/01 02:24:27;;;;;;;23.50;15.33;;;7.00;99.90;;;;;;5029259;28;20202;-48
2021/05/01 02:26:53;;;;;;;20.00;14.70;;;6.90;99.90;;;;;;5028836;28;20256;-49
2021/05/01 02:29:20;;;;;;;21.80;15.40;;;6.90;99.90;;;;;;5029269;28;20250;-48
2021/05/01 02:31:46;;;;;;;20.70;14.23;;;6.90;99.90;;;;;;5029397;28;20318;-49
2021/05/01 02:34:13;;;;;;;24.20;16.13;;;6.80;99.90;;;;;;5027409;28;20266;-49
2021/05/01 02:36:39;;;;;;;23.20;15.87;;;6.80;99.90;;;;;;5027235;28;20258;-48
2021/05/01 02:39:06;;;;;;;20.77;14.33;;;6.70;99.90;;;;;;5026787;28;22073;-48
2021/05/01 02:41:33;;;;;;;21.17;14.80;;;6.80;99.90;;;;;;5028745;28;20243;-50
2021/05/01 02:44:00;;;;;;;25.43;14.30;;;6.70;99.90;;;;;;5027116;28;20206;-50
2021/05/01 02:46:26;;;;;;;21.70;14.60;;;6.70;99.90;;;;;;5026967;28;20225;-49
2021/05/01 02:48:53;;;;;;;22.30;15.17;;;6.70;99.90;;;;;;5028907;28;21104;-49
2021/05/01 02:51:19;;;;;;;21.80;14.83;;;6.60;99.90;;;;;;5030741;28;20216;-50
2021/05/01 02:53:45;;;;;;;21.50;15.57;;;6.60;99.90;;;;;;5027184;28;20208;-49
2021/05/01 02:56:12;;;;;;;20.93;14.03;;;6.80;99.90;;;;;;5028233;28;20269;-50
2021/05/01 02:58:38;;;;;;;24.17;14.07;;;6.80;99.90;;;;;;5026464;28;20262;-49
2021/05/01 03:01:04;;;;;;;21.63;15.17;;;6.80;99.90;;;;;;5026950;28;20232;-49
2021/05/01 03:03:31;;;;;;;22.93;14.40;;;6.80;99.90;;;;;;5027852;28;20209;-49
2021/05/01 03:05:57;;;;;;;20.93;14.87;;;6.80;99.90;;;;;;5028376;28;20214;-49
2021/05/01 03:08:24;;;;;;;17.83;13.60;;;6.70;99.90;;;;;;5027473;28;20243;-49
2021/05/01 03:10:50;;;;;;;22.33;14.83;;;6.60;99.90;;;;;;5028594;28;20213;-50
2021/05/01 03:13:16;;;;;;;21.23;15.13;;;6.70;99.90;;;;;;5025599;28;20231;-49
2021/05/01 03:15:42;;;;;;;20.77;14.07;;;6.70;99.90;;;;;;5027941;28;20382;-49
2021/05/01 03:18:09;;;;;;;20.67;14.50;;;6.50;99.90;;;;;;5025857;28;20248;-49
2021/05/01 03:20:36;;;;;;;20.13;14.80;;;6.50;99.90;;;;;;5028186;28;20252;-50
2021/05/01 03:23:06;;;;;;;20.70;15.13;;;6.60;99.90;;;;;;5025945;28;20298;-49
2021/05/01 03:25:33;;;;;;;19.37;14.07;;;6.60;99.90;;;;;;5026337;28;20233;-49
2021/05/01 03:27:59;;;;;;;23.27;14.80;;;6.50;99.90;;;;;;5029969;28;20255;-49
2021/05/01 03:30:26;;;;;;;21.10;14.13;;;6.50;99.90;;;;;;5028097;28;20219;-49
2021/05/01 03:32:52;;;;;;;19.83;14.53;;;6.60;99.90;;;;;;5024966;28;20216;-49
2021/05/01 03:35:18;;;;;;;18.03;13.90;;;6.40;99.90;;;;;;5028103;28;20216;-49
2021/05/01 03:37:45;;;;;;;19.27;14.50;;;6.40;99.90;;;;;;5025343;28;20292;-49
2021/05/01 03:40:12;;;;;;;20.97;13.93;;;6.60;99.90;;;;;;5026459;28;20485;-50
2021/05/01 03:42:39;;;;;;;23.67;13.40;;;6.40;99.90;;;;;;5028094;28;20233;-50
2021/05/01 03:45:07;;;;;;;19.30;14.40;;;6.40;99.90;;;;;;5025296;28;20965;-49
2021/05/01 03:47:33;;;;;;;19.43;13.87;;;6.50;99.90;;;;;;5028545;28;20218;-49
2021/05/01 03:50:00;;;;;;;19.07;14.20;;;6.20;99.90;;;;;;5026901;28;20553;-50
2021/05/01 03:52:26;;;;;;;22.93;14.10;;;6.10;99.90;;;;;;5026470;28;20196;-49
2021/05/01 03:54:52;;;;;;;18.87;13.67;;;6.30;99.90;;;;;;5025936;28;20684;-49
2021/05/01 03:57:20;;;;;;;18.50;14.10;;;6.20;99.90;;;;;;5027000;28;20189;-49
2021/05/01 03:59:46;;;;;;;19.83;12.90;;;6.00;99.90;;;;;;5025535;28;20661;-49
2021/05/01 04:02:12;;;;;;;20.00;14.00;;;6.10;99.90;;;;;;5027402;28;20651;-49
2021/05/01 04:04:39;;;;;;;20.57;14.00;;;6.10;99.90;;;;;;5032172;28;20238;-49
2021/05/01 04:07:05;;;;;;;19.50;13.30;;;6.10;99.90;;;;;;5030256;28;20277;-49
2021/05/01 04:09:32;;;;;;;19.90;12.63;;;6.10;99.90;;;;;;5031523;28;20322;-49
2021/05/01 04:11:59;;;;;;;18.67;13.03;;;5.80;99.90;;;;;;5032311;28;21506;-49
2021/05/01 04:14:25;;;;;;;18.50;12.90;;;5.60;99.90;;;;;;5032554;28;20229;-49
2021/05/01 04:16:52;;;;;;;20.03;13.37;;;5.60;99.90;;;;;;5030717;28;20272;-50
2021/05/01 04:19:18;;;;;;;17.80;12.77;;;5.70;99.90;;;;;;5032300;28;20203;-49
2021/05/01 04:21:44;;;;;;;17.13;13.10;;;6.00;99.90;;;;;;5029322;28;20262;-49
2021/05/01 04:24:11;;;;;;;16.73;12.20;;;6.10;99.90;;;;;;5028867;28;20291;-49
2021/05/01 04:26:38;;;;;;;18.53;13.00;;;6.00;99.90;;;;;;5033206;28;20313;-49
2021/05/01 04:29:04;;;;;;;17.90;12.13;;;5.80;99.90;;;;;;5031170;28;20286;-49
2021/05/01 04:31:31;;;;;;;17.63;11.97;;;5.70;99.90;;;;;;5028727;28;20254;-49
2021/05/01 04:33:57;;;;;;;19.20;12.23;;;5.80;99.90;;;;;;5028984;28;20208;-50
2021/05/01 04:36:24;;;;;;;15.57;12.10;;;5.70;99.90;;;;;;5030224;28;20331;-50
2021/05/01 04:38:50;;;;;;;18.73;13.33;;;5.50;99.90;;;;;;5028302;28;20307;-50
2021/05/01 04:41:16;;;;;;;21.23;13.60;;;5.50;99.90;;;;;;5029018;28;20278;-50
2021/05/01 04:43:45;;;;;;;16.97;12.67;;;5.70;99.90;;;;;;5030992;28;20615;-49
2021/05/01 04:46:14;;;;;;;19.03;13.17;;;5.80;99.90;;;;;;5026987;28;20288;-50
2021/05/01 04:48:41;;;;;;;17.77;12.17;;;5.90;99.90;;;;;;5031569;28;20280;-50
2021/05/01 04:51:08;;;;;;;18.13;12.90;;;5.80;99.90;;;;;;5028830;28;20668;-49
2021/05/01 04:53:34;;;;;;;17.90;12.77;;;5.90;99.90;;;;;;5029043;28;20197;-50
2021/05/01 04:56:01;;;;;;;17.43;12.63;;;6.00;99.90;;;;;;5031214;28;20205;-50
2021/05/01 04:58:27;;;;;;;16.83;12.00;;;6.00;99.90;;;;;;5028719;28;20228;-50
2021/05/01 05:00:53;;;;;;;19.10;12.27;;;6.10;99.90;;;;;;5027991;28;20223;-50
2021/05/01 05:03:20;;;;;;;17.27;12.33;;;6.00;99.90;;;;;;5029536;28;20869;-50
2021/05/01 05:05:46;;;;;;;19.13;12.97;;;6.00;99.90;;;;;;5030615;28;20284;-50
2021/05/01 05:08:12;;;;;;;18.93;13.77;;;6.00;99.90;;;;;;5028671;28;20197;-50
2021/05/01 05:10:38;;;;;;;19.27;12.90;;;6.00;99.90;;;;;;5028283;28;20280;-50
2021/05/01 05:13:05;;;;;;;20.10;13.77;;;5.80;99.90;;;;;;5028283;28;20287;-50
2021/05/01 05:15:31;;;;;;;20.30;12.57;;;5.60;99.90;;;;;;5028961;28;20281;-50
2021/05/01 05:17:57;;;;;;;14.30;12.37;;;5.50;99.90;;;;;;5030575;28;20303;-50
2021/05/01 05:20:24;;;;;;;17.43;13.37;;;5.50;99.90;;;;;;5031460;28;20229;-49
2021/05/01 05:22:51;;;;;;;16.83;11.90;;;5.40;99.90;;;;;;5027103;28;20640;-51
2021/05/01 05:25:17;;;;;;;20.87;13.87;;;5.60;99.90;;;;;;5026763;28;20260;-50
2021/05/01 05:27:43;;;;;;;15.60;12.67;;;5.50;99.90;;;;;;5029240;28;20349;-50
2021/05/01 05:30:10;;;;;;;20.53;13.13;;;5.40;99.90;;;;;;5029385;28;20290;-50
2021/05/01 05:32:37;;;;;;;18.50;13.80;;;5.30;99.90;;;;;;5026097;28;20201;-50
2021/05/01 05:35:04;;;;;;;19.10;13.30;;;5.20;99.90;;;;;;5031402;28;20233;-50
2021/05/01 05:37:30;;;;;;;17.53;12.80;;;5.20;99.90;;;;;;5028868;28;20224;-50
2021/05/01 05:39:57;;;;;;;21.43;14.30;;;5.40;99.90;;;;;;5027623;28;21233;-50
2021/05/01 05:42:24;;;;;;;19.30;14.17;;;5.40;99.90;;;;;;5029545;28;20612;-50
2021/05/01 05:44:51;;;;;;;21.40;14.00;;;5.50;99.90;;;;;;5026820;28;20306;-50
2021/05/01 05:47:18;;;;;;;22.27;14.67;;;5.70;99.90;;;;;;5030810;28;20208;-50
2021/05/01 05:49:46;;;;;;;20.60;14.07;;;5.80;99.90;;;;;;5030379;28;20757;-50
2021/05/01 05:52:12;;;;;;;17.33;12.93;;;6.00;99.90;;;;;;5029515;28;20209;-50
2021/05/01 05:54:39;;;;;;;21.07;14.53;;;6.10;99.90;;;;;;5030322;28;20204;-50
2021/05/01 05:57:11;;;;;;;21.90;13.87;;;6.30;99.90;;;;;;5030182;28;20209;-51
2021/05/01 05:59:39;;;;;;;20.70;14.17;;;6.20;99.90;;;;;;5027422;28;20529;-50
2021/05/01 06:02:06;;;;;;;17.43;12.23;;;6.10;99.90;;;;;;5022853;28;20232;-49
2021/05/01 06:04:46;;;;;;;20.53;13.60;;;6.10;99.90;;;;;;5029914;28;20287;-50
2021/05/01 06:07:51;;;;;;;19.73;14.10;;;6.20;99.90;;;;;;5030470;28;20247;-50
2021/05/01 06:10:18;;;;;;;25.47;13.20;;;6.30;99.90;;;;;;5030093;28;20227;-49
2021/05/01 06:12:45;;;;;;;21.53;12.53;;;6.60;99.90;;;;;;5028426;28;20599;-49
2021/05/01 06:15:16;;;;;;;17.23;12.00;;;6.60;99.90;;;;;;5028101;28;20613;-52
2021/05/01 06:17:44;;;;;;;17.60;11.77;;;6.80;99.90;;;;;;5026859;28;20546;-49
2021/05/01 06:20:13;;;;;;;16.57;11.90;;;6.90;99.90;;;;;;5029884;28;20623;-49
2021/05/01 06:22:40;;;;;;;19.37;11.67;;;6.80;99.90;;;;;;5028070;28;20610;-48
2021/05/01 06:25:08;;;;;;;14.60;11.40;;;6.70;99.90;;;;;;5029444;28;20223;-49
2021/05/01 06:27:35;;;;;;;15.80;11.33;;;6.80;99.90;;;;;;5031683;28;20283;-49
2021/05/01 06:30:04;;;;;;;15.50;11.13;;;6.90;99.90;;;;;;5034259;28;20601;-48
2021/05/01 06:32:30;;;;;;;19.10;11.30;;;7.10;99.90;;;;;;5030300;28;20207;-49
2021/05/01 06:34:58;;;;;;;14.87;11.13;;;7.40;99.90;;;;;;5031526;28;20251;-48
2021/05/01 06:37:26;;;;;;;15.60;10.27;;;7.60;99.90;;;;;;5027364;28;20579;-51
2021/05/01 06:39:56;;;;;;;16.27;10.23;;;7.40;99.90;;;;;;5029407;28;20766;-49
2021/05/01 06:42:29;;;;;;;16.63;10.37;;;7.40;99.90;;;;;;5027296;28;20209;-49
2021/05/01 06:45:09;;;;;;;13.17;9.27;;;7.70;99.90;;;;;;5029930;28;20619;-49
2021/05/01 06:47:41;;;;;;;13.63;9.43;;;8.20;99.90;;;;;;5029017;28;20248;-50
2021/05/01 06:50:12;;;;;;;14.60;10.27;;;8.30;99.90;;;;;;5027318;28;20266;-50
2021/05/01 06:52:44;;;;;;;18.80;9.80;;;8.60;99.90;;;;;;5026232;28;20591;-50
2021/05/01 06:55:13;;;;;;;16.80;9.77;;;8.70;99.90;;;;;;5026452;28;20253;-50
2021/05/01 06:57:48;;;;;;;12.63;8.50;;;8.90;99.90;;;;;;5029301;28;20299;-50
2021/05/01 07:00:16;;;;;;;10.67;9.07;;;9.00;99.90;;;;;;5030244;28;20299;-50
2021/05/01 07:02:47;;;;;;;12.20;8.53;;;8.90;99.90;;;;;;5028121;28;20884;-50
2021/05/01 07:05:22;;;;;;;13.17;8.70;;;8.80;99.90;;;;;;5030055;28;20207;-50
2021/05/01 07:07:48;;;;;;;12.00;8.27;;;8.70;99.90;;;;;;5028935;28;20256;-51
2021/05/01 07:10:17;;;;;;;11.17;9.30;;;9.30;99.90;;;;;;5030974;28;20247;-50
2021/05/01 07:12:45;;;;;;;14.03;8.90;;;9.80;99.90;;;;;;5030221;28;20302;-51
2021/05/01 07:15:17;;;;;;;12.07;8.23;;;9.40;99.90;;;;;;5031500;28;20232;-50
2021/05/01 07:17:51;;;;;;;12.90;7.43;;;9.70;99.90;;;;;;5034674;28;20197;-50
2021/05/01 07:20:20;;;;;;;10.03;7.93;;;9.80;99.90;;;;;;5026567;28;20299;-50
2021/05/01 07:22:50;;;;;;;12.27;7.70;;;9.70;99.90;;;;;;5027482;28;20212;-51
2021/05/01 07:25:16;;;;;;;13.20;7.23;;;9.50;99.90;;;;;;5026513;28;20289;-50
2021/05/01 07:27:49;;;;;;;7.50;5.70;;;9.30;99.90;;;;;;5031463;28;20305;-51
2021/05/01 07:30:17;;;;;;;12.57;7.17;;;9.50;99.90;;;;;;5027960;28;20221;-50
2021/05/01 07:32:47;;;;;;;11.97;6.83;;;9.70;99.90;;;;;;5028563;28;20276;-50
2021/05/01 07:35:17;;;;;;;9.77;7.33;;;9.90;99.90;;;;;;5029629;28;20291;-50
2021/05/01 07:37:47;;;;;;;11.07;6.87;;;9.90;99.90;;;;;;5032008;28;20288;-51
2021/05/01 07:40:18;;;;;;;8.90;7.00;;;10.40;99.90;;;;;;5034265;28;20291;-50
2021/05/01 07:42:48;;;;;;;8.93;6.60;;;10.10;99.90;;;;;;5033160;28;20311;-50
2021/05/01 07:45:18;;;;;;;11.57;6.43;;;10.30;99.90;;;;;;5029591;28;20209;-51
2021/05/01 07:47:47;;;;;;;10.73;5.97;;;10.20;99.90;;;;;;5032466;28;20212;-51
2021/05/01 07:50:14;;;;;;;7.30;4.83;;;10.40;99.90;;;;;;5032799;28;20285;-51
2021/05/01 07:52:40;;;;;;;6.77;4.10;;;10.80;99.90;;;;;;5031173;28;20232;-51
2021/05/01 07:55:07;;;;;;;6.67;4.50;;;10.90;99.90;;;;;;5031033;28;20679;-50
2021/05/01 07:57:33;;;;;;;11.17;4.80;;;10.80;99.90;;;;;;5035607;28;20235;-50
2021/05/01 07:59:59;;;;;;;5.87;4.10;;;10.70;99.90;;;;;;5032693;28;20629;-51
2021/05/01 08:02:26;;;;;;;7.50;4.43;;;10.80;99.90;;;;;;5036751;28;20208;-50
2021/05/01 08:05:10;;;;;;;7.17;4.07;;;11.10;99.90;;;;;;5038966;28;20613;-50
2021/05/01 08:07:37;;;;;;;7.73;4.50;;;11.40;99.90;;;;;;5039639;28;20250;-50
2021/05/01 08:10:06;;;;;;;5.43;4.13;;;11.40;99.90;;;;;;5037908;28;20223;-50
2021/05/01 08:12:32;;;;;;;8.90;4.30;;;11.50;99.90;;;;;;5037311;28;20228;-51
2021/05/01 08:14:59;;;;;;;7.17;3.60;;;11.40;99.90;;;;;;5038555;28;20633;-51
2021/05/01 08:17:25;;;;;;;6.50;4.00;;;11.40;99.90;;;;;;5038979;28;20342;-51
2021/05/01 08:19:55;;;;;;;8.23;4.23;;;11.20;99.90;;;;;;5033601;28;20235;-50
2021/05/01 08:22:22;;;;;;;6.43;4.00;;;11.10;99.90;;;;;;5031338;28;20248;-50
2021/05/01 08:24:49;;;;;;;5.70;4.53;;;11.20;99.90;;;;;;5033342;28;20258;-51
2021/05/01 08:27:15;;;;;;;5.20;4.70;;;11.50;99.90;;;;;;5038519;28;20301;-50
2021/05/01 08:29:42;;;;;;;6.53;5.17;;;11.70;99.90;;;;;;5037046;28;20270;-50
2021/05/01 08:32:09;;;;;;;6.97;5.37;;;11.40;99.90;;;;;;5035119;28;20594;-50
2021/05/01 08:34:35;;;;;;;7.00;5.43;;;12.00;99.90;;;;;;5036776;28;20685;-50
2021/05/01 08:37:02;;;;;;;9.83;6.13;;;12.10;99.90;;;;;;5038048;28;20227;-51
2021/05/01 08:39:29;;;;;;;6.30;5.70;;;11.40;99.90;;;;;;5037551;28;20656;-50
2021/05/01 08:41:55;;;;;;;7.07;6.43;;;11.80;99.90;;;;;;5035219;28;20671;-51
2021/05/01 08:44:22;;;;;;;8.10;5.77;;;12.30;99.90;;;;;;5037263;28;20209;-50
2021/05/01 08:46:48;;;;;;;6.27;5.60;;;12.60;97.60;;;;;;5038855;28;20687;-49
2021/05/01 08:49:15;;;;;;;7.00;6.30;;;12.80;95.20;;;;;;5037625;28;20717;-49
2021/05/01 08:51:43;;;;;;;8.47;6.30;;;12.90;93.80;;;;;;5035081;28;20224;-49
2021/05/01 08:54:14;;;;;;;10.27;7.03;;;12.40;92.10;;;;;;5036474;28;20255;-50
2021/05/01 08:56:42;;;;;;;8.10;6.80;;;12.90;99.60;;;;;;5036877;28;20232;-50
2021/05/01 08:59:08;;;;;;;6.53;5.90;;;13.50;90.20;;;;;;5030160;28;20263;-49
2021/05/01 09:01:37;;;;;;;7.97;6.27;;;13.90;91.80;;;;;;5032020;28;20232;-50
2021/05/01 09:04:08;;;;;;;7.20;6.50;;;13.50;91.30;;;;;;5032734;28;20564;-51
2021/05/01 09:06:35;;;;;;;7.77;6.13;;;13.10;89.60;;;;;;5033149;28;20225;-52
2021/05/01 09:09:07;;;;;;;7.07;6.37;;;12.90;86.90;;;;;;5035901;28;20205;-49
2021/05/01 09:11:34;;;;;;;5.80;5.30;;;12.90;87.80;;;;;;5035440;28;20213;-50
2021/05/01 09:14:12;;;;;;;5.87;5.37;;;12.50;87.60;;;;;;5031841;28;20371;-49
2021/05/01 09:16:40;;;;;;;7.00;6.30;;;12.30;91.80;;;;;;5032609;28;20603;-50
2021/05/01 09:19:06;;;;;;;7.03;6.33;;;12.10;97.50;;;;;;5034222;28;20199;-49
2021/05/01 09:21:33;;;;;;;7.33;5.67;;;12.00;99.90;;;;;;5031189;28;20278;-49
2021/05/01 09:24:00;;;;;;;5.47;4.97;;;12.10;99.90;;;;;;5028194;28;20504;-50
2021/05/01 09:26:39;;;;;;;6.53;5.13;;;12.60;99.30;;;;;;5033541;28;20236;-49
2021/05/01 09:29:10;;;;;;;7.37;5.30;;;12.90;89.50;;;;;;5034734;28;20353;-50
2021/05/01 09:31:44;;;;;;;5.13;4.63;;;13.20;90.00;;;;;;5030094;28;20679;-49
2021/05/01 09:34:11;;;;;;;5.13;4.63;;;13.90;79.70;;;;;;5030651;28;20600;-51
2021/05/01 09:36:39;;;;;;;5.53;4.73;;;13.90;71.30;;;;;;5031060;28;20228;-50
2021/05/01 09:39:06;;;;;;;7.43;5.40;;;13.20;85.60;;;;;;5030412;28;20255;-49
2021/05/01 09:41:36;;;;;;;6.23;5.50;;;13.80;86.60;;;;;;5031754;28;20313;-50
2021/05/01 09:44:08;;;;;;;5.37;4.73;;;13.80;77.70;;;;;;5026834;28;20230;-49
2021/05/01 09:46:38;;;;;;;4.83;3.70;;;13.90;75.10;;;;;;5020849;28;20741;-49
2021/05/01 09:49:17;;;;;;;5.20;4.70;;;14.40;47.60;;;;;;5021117;28;20507;-50
2021/05/01 09:51:49;;;;;;;5.70;5.03;;;14.60;41.90;;;;;;5025564;28;20265;-50
2021/05/01 09:54:18;;;;;;;5.13;4.73;;;14.90;45.20;;;;;;5017052;28;20231;-49
2021/05/01 09:56:49;;;;;;;6.77;5.10;;;14.90;44.00;;;;;;5021214;28;20682;-49
2021/05/01 09:59:15;;;;;;;6.40;5.20;;;14.80;42.20;;;;;;5023503;28;20258;-49
2021/05/01 10:01:42;;;;;;;7.07;5.20;;;14.10;48.50;;;;;;5020393;28;20923;-50
2021/05/01 10:04:18;;;;;;;7.30;4.70;;;14.00;52.10;;;;;;5018747;28;20216;-49
2021/05/01 10:06:56;;;;;;;5.33;4.67;;;13.90;54.70;;;;;;5021510;28;20905;-49
2021/05/01 10:09:34;;;;;;;5.13;4.27;;;13.80;49.90;;;;;;5020997;28;20233;-51
2021/05/01 10:12:16;;;;;;;5.70;4.90;;;13.40;54.40;;;;;;5020817;28;20271;-52
2021/05/01 10:14:52;;;;;;;6.50;5.10;;;13.30;66.30;;;;;;5019145;28;20658;-49
2021/05/01 10:17:22;;;;;;;6.60;4.67;;;13.10;61.80;;;;;;5025536;28;20234;-49
2021/05/01 10:20:05;;;;;;;7.60;5.43;;;13.20;58.90;;;;;;5035585;28;20205;-51
2021/05/01 10:22:45;;;;;;;7.03;5.40;;;12.90;64.60;;;;;;5020087;28;20269;-49
2021/05/01 10:25:20;;;;;;;6.03;5.40;;;12.90;70.00;;;;;;5023900;28;20281;-52
2021/05/01 10:28:07;;;;;;;5.90;5.27;;;13.10;70.30;;;;;;5029870;28;20222;-49
2021/05/01 10:30:44;;;;;;;6.70;4.70;;;13.20;53.20;;;;;;5027257;28;20297;-49
2021/05/01 10:33:33;;;;;;;5.93;4.90;;;13.10;59.70;;;;;;5026272;28;20274;-50
2021/05/01 10:36:08;;;;;;;8.43;4.57;;;13.30;54.20;;;;;;5026544;28;20808;-49
2021/05/01 10:38:37;;;;;;;4.93;4.30;;;13.00;56.10;;;;;;5035340;28;20679;-49
2021/05/01 10:41:24;;;;;;;5.77;4.63;;;12.30;65.30;;;;;;5038126;28;20204;-49
2021/05/01 10:43:53;;;;;;;5.67;5.17;;;12.10;72.40;;;;;;5032089;28;20262;-51
2021/05/01 10:46:30;;;;;;;5.47;4.57;;;12.30;72.80;;;;;;5023789;28;20290;-51
2021/05/01 10:49:04;;;;;;;5.83;5.27;;;12.50;76.00;;;;;;5026042;28;20209;-49
2021/05/01 10:51:37;;;;;;;5.47;4.80;;;12.60;72.60;;;;;;5020462;28;20894;-49
2021/05/01 10:54:15;;;;;;;5.70;5.20;;;12.80;77.60;;;;;;5028248;28;20301;-49
2021/05/01 10:56:53;;;;;;;6.13;5.53;;;12.00;78.10;;;;;;5031918;28;20251;-57
2021/05/01 10:59:27;;;;;;;7.50;5.40;;;12.30;73.50;;;;;;5031436;28;20188;-55
2021/05/01 11:01:55;;;;;;;6.47;5.40;;;12.40;73.80;;;;;;5025578;28;20260;-58
2021/05/01 11:04:31;;;;;;;7.20;5.63;;;12.40;74.10;;;;;;5023287;28;21891;-55
2021/05/01 11:07:24;;;;;;;6.23;5.33;;;12.60;75.70;;;;;;5024677;28;20619;-58
2021/05/01 11:09:51;;;;;;;8.30;5.40;;;12.60;70.10;;;;;;5025270;28;20261;-55
2021/05/01 11:12:20;;;;;;;6.40;5.57;;;12.70;66.40;;;;;;5030342;28;20223;-55
2021/05/01 11:14:58;;;;;;;7.47;5.83;;;12.90;72.40;;;;;;5028470;28;21030;-55
2021/05/01 11:17:30;;;;;;;6.17;5.40;;;13.10;76.50;;;;;;5033953;28;20665;-55
2021/05/01 11:20:12;;;;;;;5.50;5.00;;;13.50;76.20;;;;;;5030473;28;20268;-56
2021/05/01 11:22:43;;;;;;;5.53;4.87;;;13.70;69.90;;;;;;5029208;28;20267;-56
2021/05/01 11:25:15;;;;;;;6.17;4.47;;;13.70;64.20;;;;;;5029295;28;20205;-56
2021/05/01 11:27:44;;;;;;;6.37;4.83;;;13.30;67.00;;;;;;5034232;28;20227;-56
2021/05/01 11:30:17;;;;;;;5.17;4.23;;;13.50;71.70;;;;;;5031217;28;20216;-56
2021/05/01 11:32:45;;;;;;;6.23;5.30;;;13.80;72.70;;;;;;5028066;28;20225;-56
2021/05/01 11:35:14;;;;;;;5.80;5.03;;;14.10;64.80;;;;;;5030638;28;20215;-56
2021/05/01 11:37:43;;;;;;;6.03;4.80;;;14.80;51.00;;;;;;5029373;28;20195;-56
2021/05/01 11:40:12;;;;;;;5.97;4.37;;;14.80;48.70;;;;;;5033082;28;20211;-56
2021/05/01 11:42:41;;;;;;;6.03;5.10;;;15.10;40.90;;;;;;5032058;28;20306;-56
2021/05/01 11:45:14;;;;;;;6.57;4.93;;;15.10;40.90;;;;;;5032061;28;20356;-56
2021/05/01 11:47:45;;;;;;;7.63;5.23;;;15.10;46.40;;;;;;5031472;28;20219;-56
2021/05/01 11:50:13;;;;;;;4.50;4.10;;;15.60;42.50;;;;;;5030513;28;22166;-56
2021/05/01 11:52:46;;;;;;;4.67;4.10;;;14.90;41.20;;;;;;5029866;28;20251;-56
2021/05/01 11:55:29;;;;;;;5.37;3.70;;;15.10;32.80;;;;;;5032266;28;20706;-56
2021/05/01 11:57:57;;;;;;;3.87;3.47;;;15.40;23.00;;;;;;5031516;28;20280;-56
2021/05/01 12:00:33;;;;;;;5.87;3.30;;;15.40;19.00;;;;;;5029638;28;20632;-57
2021/05/01 12:03:01;;;;;;;3.17;2.87;;;15.40;21.90;;;;;;5027484;28;20643;-56
2021/05/01 12:05:36;;;;;;;4.00;3.33;;;16.10;26.80;;;;;;5028565;28;20202;-56
2021/05/01 12:08:16;;;;;;;4.97;3.50;;;16.60;19.90;;;;;;5030715;28;20210;-57
2021/05/01 12:10:45;;;;;;;3.90;3.60;;;16.50;21.60;;;;;;5032559;28;20600;-57
2021/05/01 12:13:28;;;;;;;4.43;3.80;;;16.40;21.50;;;;;;5034897;28;20213;-55
2021/05/01 12:15:56;;;;;;;5.17;3.87;;;15.40;20.70;;;;;;5029782;28;20567;-58
2021/05/01 12:18:39;;;;;;;3.87;3.57;;;15.10;25.80;;;;;;5034029;28;20614;-55
2021/05/01 12:21:06;;;;;;;4.03;3.63;;;14.90;29.60;;;;;;5033490;28;20332;-57
2021/05/01 12:23:57;;;;;;;4.53;3.60;;;15.30;28.20;;;;;;5034737;28;20205;-57
2021/05/01 12:26:43;;;;;;;4.13;3.73;;;15.60;26.30;;;;;;5037380;28;20233;-57
2021/05/01 12:29:19;;;;;;;6.87;4.10;;;15.20;24.20;;;;;;5033124;28;20304;-58
2021/05/01 12:32:07;;;;;;;5.33;3.77;;;14.70;30.30;;;;;;5033286;28;20269;-56
2021/05/01 12:34:57;;;;;;;4.83;3.97;;;14.10;30.10;;;;;;5036589;28;20640;-58
2021/05/01 12:37:26;;;;;;;6.00;3.80;;;13.70;37.10;;;;;;5033500;28;20218;-55
2021/05/01 12:39:59;;;;;;;3.80;3.50;;;13.80;34.80;;;;;;5020096;28;20314;-55
2021/05/01 12:42:28;;;;;;;6.00;3.90;;;13.70;30.00;;;;;;5037808;28;20583;-55
2021/05/01 12:44:55;;;;;;;3.70;3.30;;;13.80;33.00;;;;;;5034007;28;20628;-56
2021/05/01 12:47:45;;;;;;;4.20;3.80;;;14.20;31.30;;;;;;5032603;28;20234;-58
2021/05/01 12:50:11;;;;;;;6.20;3.20;;;14.60;30.00;;;;;;5033824;28;20211;-55
2021/05/01 12:52:40;;;;;;;4.77;3.17;;;15.10;25.80;;;;;;5026612;28;20207;-55
2021/05/01 12:55:07;;;;;;;4.80;3.50;;;15.10;23.20;;;;;;5030815;28;20309;-58